Main page
METAR-TAF:

METAR-TAF

Airports :

Sandane Airport. Anda

Sandane, Norway

latitude: 61-50N, longitude: 006-07E, elevation: 6 m

Current weather observation

The report was made 6 hours and 18 minutes ago, at 20:50 UTC
Wind 6 kt from the North/Northeast, varying between North/Northeast and East/Southeast
Temperature 4°C
Humidity 87%
Pressure 965 hPa
Visibility 10 km or more
Few clouds at a height of 2700 ft
Broken clouds at a height of 3600 ft

METAR: ENSD 082050Z 02006KT 020V110 9999 FEW027 BKN036 04/02 Q0965 RMK WIND 1138FT VRB04KT

Time: 04:08 (03:08 UTC)


TAF: missing

Weather observations and forecasts of more than 4000 airports (METAR and TAF reports).

The available stations are represented by yellow and red dots on the map.

Hover mouse over dot to see the name of the station.

Then click to see weather observations and forecasts.

To change the map : click on the green buttons with a black cross to zoom in, on the green button with a dash to zoom out, or on the green arrows for adjacent maps.


METAR-TAF: